createdAt,value
2018-09-04T00:00:29.535Z,17.20
2018-09-04T00:02:58.681Z,17.20
2018-09-04T00:05:27.828Z,17.20
2018-09-04T00:07:56.954Z,17.20
2018-09-04T00:10:26.114Z,17.20
2018-09-04T00:12:55.254Z,17.10
2018-09-04T00:15:24.408Z,17.20
2018-09-04T00:17:53.553Z,17.10
2018-09-04T00:20:22.689Z,17.10
2018-09-04T00:22:51.877Z,17.10
2018-09-04T00:25:21.021Z,17.10
2018-09-04T00:27:50.220Z,17.10
2018-09-04T00:30:19.349Z,17.10
2018-09-04T00:32:48.493Z,17.00
2018-09-04T00:35:17.622Z,17.00
2018-09-04T00:37:46.753Z,17.00
2018-09-04T00:40:15.919Z,17.00
2018-09-04T00:42:45.125Z,17.00
2018-09-04T00:45:14.272Z,17.00
2018-09-04T00:47:43.426Z,17.00
2018-09-04T00:50:12.561Z,17.00
2018-09-04T00:52:41.752Z,16.90
2018-09-04T00:55:10.948Z,16.90
2018-09-04T00:57:40.134Z,16.90
2018-09-04T01:00:09.335Z,16.90
2018-09-04T01:02:38.509Z,16.90
2018-09-04T01:05:07.694Z,16.90
2018-09-04T01:07:36.877Z,16.90
2018-09-04T01:10:06.137Z,16.90
2018-09-04T01:12:35.289Z,16.80
2018-09-04T01:15:04.522Z,16.80
2018-09-04T01:17:33.686Z,16.80
2018-09-04T01:20:02.885Z,16.70
2018-09-04T01:22:32.045Z,16.70
2018-09-04T01:25:01.230Z,16.60
2018-09-04T01:27:30.444Z,16.60
2018-09-04T01:29:59.682Z,16.60
2018-09-04T01:32:28.853Z,16.60
2018-09-04T01:34:58.009Z,16.60
2018-09-04T01:37:27.177Z,16.60
2018-09-04T01:39:56.398Z,16.60
2018-09-04T01:42:25.601Z,16.50
2018-09-04T01:44:54.777Z,16.50
2018-09-04T01:47:23.953Z,16.60
2018-09-04T01:49:53.142Z,16.50
2018-09-04T01:52:22.314Z,16.50
2018-09-04T01:54:51.499Z,16.50
2018-09-04T01:57:20.717Z,16.40
2018-09-04T01:59:49.926Z,16.50
2018-09-04T02:02:19.110Z,16.40
2018-09-04T02:04:48.297Z,16.40
2018-09-04T02:07:17.469Z,16.40
2018-09-04T02:09:46.646Z,16.40
2018-09-04T02:12:15.799Z,16.30
2018-09-04T02:14:45.001Z,16.30
2018-09-04T02:17:14.153Z,16.30
2018-09-04T02:19:43.333Z,16.30
2018-09-04T02:22:12.513Z,16.30
2018-09-04T02:24:41.648Z,16.30
2018-09-04T02:27:10.793Z,16.20
2018-09-04T02:29:39.978Z,16.20
2018-09-04T02:32:09.161Z,16.20
2018-09-04T02:34:38.302Z,16.20
2018-09-04T02:37:07.449Z,16.20
2018-09-04T02:39:36.577Z,16.20
2018-09-04T02:42:05.998Z,16.20
2018-09-04T02:44:35.150Z,16.10
2018-09-04T02:47:04.291Z,16.10
2018-09-04T02:49:33.429Z,16.10
2018-09-04T02:52:02.575Z,16.10
2018-09-04T02:54:31.734Z,16.10
2018-09-04T02:57:00.865Z,16.10
2018-09-04T02:59:30.033Z,16.10
2018-09-04T03:01:59.245Z,16.00
2018-09-04T03:04:29.480Z,16.00
2018-09-04T03:06:58.612Z,16.00
2018-09-04T03:09:27.760Z,16.00
2018-09-04T03:11:56.892Z,15.90
2018-09-04T03:14:26.051Z,16.00
2018-09-04T03:16:55.180Z,15.90
2018-09-04T03:19:24.338Z,15.90
2018-09-04T03:21:53.493Z,15.90
2018-09-04T03:24:22.643Z,15.90
2018-09-04T03:26:51.792Z,15.90
2018-09-04T03:29:20.950Z,15.90
2018-09-04T03:31:50.087Z,15.90
2018-09-04T03:34:19.242Z,15.80
2018-09-04T03:36:48.385Z,15.90
2018-09-04T03:39:17.513Z,15.90
2018-09-04T03:41:46.741Z,15.90
2018-09-04T03:44:15.893Z,15.90
2018-09-04T03:46:45.009Z,16.00
2018-09-04T03:49:14.238Z,16.00
2018-09-04T03:51:43.356Z,16.00
2018-09-04T03:54:12.501Z,16.00
2018-09-04T03:56:41.665Z,16.00
2018-09-04T03:59:10.812Z,16.00
2018-09-04T04:01:39.994Z,16.00
2018-09-04T04:04:09.137Z,16.00
2018-09-04T04:06:38.277Z,15.90
2018-09-04T04:09:10.009Z,15.90
2018-09-04T04:11:39.241Z,15.80
2018-09-04T04:14:08.855Z,15.80
2018-09-04T04:16:37.997Z,15.80
2018-09-04T04:19:07.153Z,15.70
2018-09-04T04:21:36.301Z,15.70
2018-09-04T04:24:05.460Z,15.70
2018-09-04T04:26:34.597Z,15.70
2018-09-04T04:29:03.733Z,15.70
2018-09-04T04:31:32.889Z,15.70
2018-09-04T04:34:02.038Z,15.70
2018-09-04T04:36:31.251Z,15.70
2018-09-04T04:39:00.420Z,15.70
2018-09-04T04:41:29.594Z,15.70
2018-09-04T04:43:58.735Z,15.70
2018-09-04T04:46:28.114Z,15.70
2018-09-04T04:48:57.342Z,15.70
2018-09-04T04:51:26.476Z,15.70
2018-09-04T04:53:55.807Z,15.70
2018-09-04T04:56:24.987Z,15.70
2018-09-04T04:58:54.137Z,15.70
2018-09-04T05:01:23.261Z,15.70
2018-09-04T05:03:52.394Z,15.70
2018-09-04T05:06:21.537Z,15.60
2018-09-04T05:08:50.664Z,15.60
2018-09-04T05:11:19.866Z,15.60
2018-09-04T05:13:48.952Z,15.60
2018-09-04T05:16:18.078Z,15.60
2018-09-04T05:18:47.206Z,15.50
2018-09-04T05:21:16.465Z,15.50
2018-09-04T05:23:45.596Z,15.50
2018-09-04T05:26:14.729Z,15.50
2018-09-04T05:28:43.875Z,15.40
2018-09-04T05:31:13.085Z,15.40
2018-09-04T05:33:43.682Z,15.40
2018-09-04T05:36:13.010Z,15.40
2018-09-04T05:38:42.164Z,15.50
2018-09-04T05:41:11.570Z,15.40
2018-09-04T05:43:52.953Z,15.40
2018-09-04T05:46:30.052Z,15.50
2018-09-04T05:48:59.644Z,15.40
2018-09-04T05:51:28.783Z,15.40
2018-09-04T05:53:58.355Z,15.40
2018-09-04T05:56:27.533Z,15.40
2018-09-04T05:58:56.681Z,15.40
2018-09-04T06:01:25.840Z,15.40
2018-09-04T06:03:55.004Z,15.40
2018-09-04T06:06:24.133Z,15.40
2018-09-04T06:08:53.679Z,15.40
2018-09-04T06:11:22.793Z,15.40
2018-09-04T06:13:51.974Z,15.40
2018-09-04T06:16:21.079Z,15.40
2018-09-04T06:18:50.209Z,15.50
2018-09-04T06:21:19.394Z,15.50
2018-09-04T06:23:48.540Z,15.40
2018-09-04T06:26:17.677Z,15.40
2018-09-04T06:28:46.841Z,15.40
2018-09-04T06:31:15.977Z,15.40
2018-09-04T06:33:45.341Z,15.40
2018-09-04T06:36:14.597Z,15.40
2018-09-04T06:38:43.753Z,15.40
2018-09-04T06:41:12.918Z,15.40
2018-09-04T06:43:42.066Z,15.40
2018-09-04T06:46:11.204Z,15.50
2018-09-04T06:48:40.332Z,15.50
2018-09-04T06:51:09.530Z,15.50
2018-09-04T06:53:38.901Z,15.50
2018-09-04T06:56:08.185Z,15.50
2018-09-04T06:58:37.351Z,15.50
2018-09-04T07:01:06.514Z,15.50
2018-09-04T07:03:35.642Z,15.50
2018-09-04T07:06:05.028Z,15.50
2018-09-04T07:08:34.131Z,15.40
2018-09-04T07:11:03.315Z,15.40
2018-09-04T07:13:32.442Z,15.40
2018-09-04T07:16:01.599Z,15.40
2018-09-04T07:18:30.737Z,15.40
2018-09-04T07:20:59.864Z,15.40
2018-09-04T07:23:28.993Z,15.40
2018-09-04T07:25:58.150Z,15.50
2018-09-04T07:28:27.297Z,15.50
2018-09-04T07:30:56.440Z,15.50
2018-09-04T07:33:25.594Z,15.40
2018-09-04T07:35:54.753Z,15.40
2018-09-04T07:38:23.893Z,15.40
2018-09-04T07:40:53.038Z,15.40
2018-09-04T07:43:22.736Z,15.50
2018-09-04T07:45:51.906Z,15.50
2018-09-04T07:48:21.037Z,15.50
2018-09-04T07:50:50.182Z,15.50
2018-09-04T07:53:19.374Z,15.50
2018-09-04T07:55:48.529Z,15.50
2018-09-04T07:58:17.663Z,15.50
2018-09-04T08:00:46.833Z,15.50
2018-09-04T08:03:15.977Z,15.50
2018-09-04T08:05:45.110Z,15.50
2018-09-04T08:08:14.317Z,15.50
2018-09-04T08:10:43.447Z,15.50
2018-09-04T08:13:12.578Z,15.50
2018-09-04T08:15:41.713Z,15.50
2018-09-04T08:18:10.849Z,15.50
2018-09-04T08:20:40.127Z,15.50
2018-09-04T08:23:09.135Z,15.50
2018-09-04T08:25:38.289Z,15.60
2018-09-04T08:28:07.413Z,15.60
2018-09-04T08:30:36.553Z,15.60
2018-09-04T08:33:05.907Z,15.60
2018-09-04T08:35:35.062Z,15.60
2018-09-04T08:38:04.182Z,15.60
2018-09-04T08:40:33.667Z,15.60
2018-09-04T08:43:02.893Z,15.60
2018-09-04T08:45:32.601Z,15.60
2018-09-04T08:48:02.874Z,15.60
2018-09-04T08:50:34.018Z,15.60
2018-09-04T08:53:03.125Z,15.60
2018-09-04T08:55:32.289Z,15.60
2018-09-04T08:58:01.460Z,15.60
2018-09-04T09:00:30.642Z,15.60
2018-09-04T09:02:59.796Z,15.60
2018-09-04T09:05:28.976Z,15.60
2018-09-04T09:07:58.113Z,15.60
2018-09-04T09:10:27.285Z,15.60
2018-09-04T09:12:56.451Z,15.60
2018-09-04T09:15:25.614Z,15.60
2018-09-04T09:17:54.893Z,15.60
2018-09-04T09:20:24.069Z,15.60
2018-09-04T09:22:53.268Z,15.60
2018-09-04T09:25:22.410Z,15.60
2018-09-04T09:27:51.571Z,15.60
2018-09-04T09:30:20.746Z,15.60
2018-09-04T09:32:49.909Z,15.70
2018-09-04T09:35:19.137Z,15.70
2018-09-04T09:37:48.279Z,15.70
2018-09-04T09:40:17.439Z,15.70
2018-09-04T09:42:46.603Z,15.80
2018-09-04T09:45:15.783Z,15.80
2018-09-04T09:47:50.108Z,15.70
2018-09-04T09:50:20.449Z,15.80
2018-09-04T09:52:49.759Z,15.80
2018-09-04T09:55:18.955Z,15.80
2018-09-04T09:57:54.871Z,15.80
2018-09-04T10:00:29.357Z,15.80
2018-09-04T10:03:05.700Z,15.80
2018-09-04T10:05:34.837Z,15.90
2018-09-04T10:08:04.005Z,15.80
2018-09-04T10:10:33.165Z,15.90
2018-09-04T10:13:02.350Z,15.90
2018-09-04T10:15:31.494Z,15.90
2018-09-04T10:18:01.093Z,15.90
2018-09-04T10:20:30.223Z,16.00
2018-09-04T10:22:59.369Z,16.00
2018-09-04T10:25:28.518Z,16.00
2018-09-04T10:27:57.647Z,16.00
2018-09-04T10:30:26.815Z,16.00
2018-09-04T10:32:55.938Z,16.10
2018-09-04T10:35:25.070Z,16.10
2018-09-04T10:37:55.113Z,16.10
2018-09-04T10:40:29.468Z,16.10
2018-09-04T10:42:58.554Z,16.10
2018-09-04T10:45:33.411Z,16.10
2018-09-04T10:48:02.538Z,16.10
2018-09-04T10:50:31.665Z,16.20
2018-09-04T10:53:00.829Z,16.10
2018-09-04T10:55:29.959Z,16.10
2018-09-04T10:57:59.081Z,16.10
2018-09-04T11:00:28.221Z,16.10
2018-09-04T11:02:57.410Z,16.10
2018-09-04T11:05:26.573Z,16.10
2018-09-04T11:07:55.709Z,16.20
2018-09-04T11:17:26.238Z,16.20
2018-09-04T11:19:55.387Z,16.20
2018-09-04T11:22:24.538Z,16.30
2018-09-04T11:24:53.873Z,16.20
2018-09-04T11:27:23.017Z,16.20
2018-09-04T11:29:52.173Z,16.30
2018-09-04T11:32:21.320Z,16.30
2018-09-04T11:34:50.635Z,16.30
2018-09-04T11:37:19.841Z,16.30
2018-09-04T11:39:48.989Z,16.30
2018-09-04T11:42:18.164Z,16.30
2018-09-04T11:44:47.446Z,16.40
2018-09-04T11:47:16.582Z,16.40
2018-09-04T11:49:45.712Z,16.40
2018-09-04T11:52:14.905Z,16.40
2018-09-04T11:54:44.042Z,16.40
2018-09-04T11:57:13.188Z,16.40
2018-09-04T11:59:43.429Z,16.40
2018-09-04T12:02:17.771Z,16.40
2018-09-04T12:04:47.078Z,16.40
2018-09-04T12:07:16.248Z,16.50
2018-09-04T12:09:45.449Z,16.50
2018-09-04T12:12:19.886Z,16.50
2018-09-04T12:14:48.952Z,16.50
2018-09-04T12:17:18.153Z,16.60
2018-09-04T12:21:03.337Z,16.50
2018-09-04T12:23:32.438Z,16.50
2018-09-04T12:26:02.856Z,16.50
2018-09-04T12:28:32.056Z,16.50
2018-09-04T12:31:01.557Z,16.50
2018-09-04T12:33:31.058Z,16.50
2018-09-04T12:36:00.243Z,16.50
2018-09-04T12:38:31.004Z,16.50
2018-09-04T12:41:04.253Z,16.60
2018-09-04T12:43:33.426Z,16.60
2018-09-04T12:46:02.604Z,16.60
2018-09-04T12:48:31.883Z,16.70
2018-09-04T12:51:02.125Z,16.70
2018-09-04T12:53:32.216Z,16.70
2018-09-04T12:56:01.457Z,16.70
2018-09-04T12:58:30.620Z,16.70
2018-09-04T13:00:59.825Z,16.80
2018-09-04T13:03:29.849Z,16.80
2018-09-04T13:05:59.370Z,16.90
2018-09-04T13:08:30.161Z,16.90
2018-09-04T13:10:59.341Z,16.90
2018-09-04T13:13:28.737Z,16.90
2018-09-04T13:16:00.161Z,17.00
2018-09-04T13:18:30.028Z,17.00
2018-09-04T13:21:01.274Z,17.00
2018-09-04T13:23:31.301Z,17.10
2018-09-04T13:26:00.738Z,17.20
2018-09-04T13:28:30.517Z,17.40
2018-09-04T13:30:59.813Z,17.50
2018-09-04T13:33:29.017Z,17.60
2018-09-04T13:35:58.202Z,17.70
2018-09-04T13:38:27.357Z,17.80
2018-09-04T13:41:01.922Z,17.90
2018-09-04T13:43:31.115Z,18.00
2018-09-04T13:46:00.266Z,18.20
2018-09-04T13:48:30.541Z,18.40
2018-09-04T13:50:59.736Z,18.50
2018-09-04T13:53:29.665Z,18.50
2018-09-04T13:55:59.772Z,18.60
2018-09-04T13:58:28.959Z,18.50
2018-09-04T14:00:58.134Z,18.60
2018-09-04T14:03:27.358Z,18.70
2018-09-04T14:05:56.989Z,18.90
2018-09-04T14:08:26.164Z,19.00
2018-09-04T14:10:55.325Z,19.20
2018-09-04T14:13:24.501Z,19.30
2018-09-04T14:15:59.600Z,19.40
2018-09-04T14:18:28.917Z,19.40
2018-09-04T14:20:58.128Z,19.40
2018-09-04T14:23:27.339Z,19.40
2018-09-04T14:25:56.507Z,19.20
2018-09-04T14:28:41.498Z,19.20
2018-09-04T14:30:54.929Z,19.10
2018-09-04T14:33:24.331Z,19.00
2018-09-04T14:35:53.526Z,18.90
2018-09-04T14:38:22.623Z,18.80
2018-09-04T14:40:51.998Z,18.70
2018-09-04T14:43:21.184Z,18.60
2018-09-04T14:45:50.333Z,18.70
2018-09-04T14:48:19.474Z,18.70
2018-09-04T14:50:48.618Z,18.80
2018-09-04T14:53:17.754Z,18.80
2018-09-04T14:55:46.902Z,18.80
2018-09-04T14:58:16.052Z,18.80
2018-09-04T15:00:45.222Z,18.80
2018-09-04T15:03:14.458Z,18.80
2018-09-04T15:05:44.107Z,18.80
2018-09-04T15:08:13.294Z,18.80
2018-09-04T15:10:42.463Z,18.70
2018-09-04T15:13:11.618Z,18.70
2018-09-04T15:15:40.785Z,18.70
2018-09-04T15:18:09.956Z,18.70
2018-09-04T15:20:39.370Z,18.70
2018-09-04T15:23:08.535Z,18.70
2018-09-04T15:25:37.765Z,18.70
2018-09-04T15:28:06.885Z,18.70
2018-09-04T15:30:36.065Z,18.60
2018-09-04T15:33:05.383Z,18.60
2018-09-04T15:35:34.554Z,18.50
2018-09-04T15:38:03.737Z,18.50
2018-09-04T15:40:32.907Z,18.50
2018-09-04T15:43:02.083Z,18.50
2018-09-04T15:45:31.349Z,18.50
2018-09-04T15:48:00.521Z,18.50
2018-09-04T15:50:29.705Z,18.50
2018-09-04T15:52:58.894Z,18.60
2018-09-04T15:55:28.090Z,18.50
2018-09-04T15:57:57.254Z,18.60
2018-09-04T16:00:26.413Z,18.60
2018-09-04T16:02:55.598Z,18.70
2018-09-04T16:05:24.960Z,18.70
2018-09-04T16:07:54.147Z,18.80
2018-09-04T16:10:23.382Z,18.80
2018-09-04T16:12:52.496Z,18.80
2018-09-04T16:15:21.673Z,18.80
2018-09-04T16:17:50.822Z,18.80
2018-09-04T16:20:20.035Z,18.80
2018-09-04T16:22:49.515Z,18.70
2018-09-04T16:25:18.743Z,18.80
2018-09-04T16:27:47.857Z,18.70
2018-09-04T16:30:17.321Z,18.70
2018-09-04T16:32:46.457Z,18.70
2018-09-04T16:35:15.596Z,18.70
2018-09-04T16:37:45.013Z,18.70
2018-09-04T16:40:14.153Z,18.70
2018-09-04T16:42:43.286Z,18.70
2018-09-04T16:45:12.442Z,18.60
2018-09-04T16:47:41.579Z,18.60
2018-09-04T16:50:10.730Z,18.50
2018-09-04T16:52:39.876Z,18.50
2018-09-04T16:55:08.996Z,18.50
2018-09-04T16:57:38.141Z,18.50
2018-09-04T17:00:07.576Z,18.40
2018-09-04T17:02:36.789Z,18.40
2018-09-04T17:05:05.954Z,18.40
2018-09-04T17:07:35.105Z,18.40
2018-09-04T17:10:04.303Z,18.40
2018-09-04T17:12:33.538Z,18.40
2018-09-04T17:15:02.697Z,18.40
2018-09-04T17:17:32.177Z,18.30
2018-09-04T17:20:01.339Z,18.30
2018-09-04T17:22:30.533Z,18.30
2018-09-04T17:24:59.798Z,18.30
2018-09-04T17:27:29.353Z,18.20
2018-09-04T17:29:58.493Z,18.20
2018-09-04T17:32:27.641Z,18.20
2018-09-04T17:34:56.804Z,18.20
2018-09-04T17:37:25.994Z,18.20
2018-09-04T17:39:55.156Z,18.10
2018-09-04T17:42:24.309Z,18.10
2018-09-04T17:44:53.449Z,18.10
2018-09-04T17:47:22.622Z,18.10
2018-09-04T17:49:51.773Z,18.00
2018-09-04T17:52:20.965Z,18.00
2018-09-04T17:54:50.164Z,18.00
2018-09-04T17:57:19.265Z,17.90
2018-09-04T17:59:48.441Z,17.90
2018-09-04T18:02:17.594Z,17.90
2018-09-04T18:04:46.773Z,17.80
2018-09-04T18:07:15.902Z,17.80
2018-09-04T18:09:45.032Z,17.80
2018-09-04T18:12:14.248Z,17.80
2018-09-04T18:14:43.339Z,17.70
2018-09-04T18:17:12.524Z,17.70
2018-09-04T18:19:41.648Z,17.70
2018-09-04T18:22:10.806Z,17.70
2018-09-04T18:24:39.941Z,17.70
2018-09-04T18:27:09.107Z,17.60
2018-09-04T18:29:38.250Z,17.60
2018-09-04T18:32:07.625Z,17.70
2018-09-04T18:34:36.795Z,17.60
2018-09-04T18:37:05.885Z,17.70
2018-09-04T18:39:35.046Z,17.70
2018-09-04T18:42:04.169Z,17.60
2018-09-04T18:44:33.357Z,17.60
2018-09-04T18:47:02.481Z,17.60
2018-09-04T18:49:31.635Z,17.60
2018-09-04T18:52:00.769Z,17.60
2018-09-04T18:54:29.937Z,17.60
2018-09-04T18:56:59.101Z,17.60
2018-09-04T18:59:28.288Z,17.60
2018-09-04T19:01:57.432Z,17.60
2018-09-04T19:04:26.582Z,17.60
2018-09-04T19:06:55.782Z,17.60
2018-09-04T19:09:24.916Z,17.60
2018-09-04T19:11:54.097Z,17.60
2018-09-04T19:14:23.289Z,17.60
2018-09-04T19:16:52.471Z,17.60
2018-09-04T19:19:21.605Z,17.60
2018-09-04T19:21:50.753Z,17.60
2018-09-04T19:24:19.898Z,17.50
2018-09-04T19:26:49.065Z,17.60
2018-09-04T19:29:18.216Z,17.50
2018-09-04T19:31:47.453Z,17.50
2018-09-04T19:34:16.537Z,17.50
2018-09-04T19:36:45.684Z,17.50
2018-09-04T19:39:14.850Z,17.40
2018-09-04T19:41:44.029Z,17.50
2018-09-04T19:44:13.161Z,17.40
2018-09-04T19:46:42.293Z,17.40
2018-09-04T19:49:11.423Z,17.40
2018-09-04T19:51:40.602Z,17.40
2018-09-04T19:54:09.771Z,17.30
2018-09-04T19:56:38.927Z,17.30
2018-09-04T19:59:08.057Z,17.30
2018-09-04T20:01:37.202Z,17.30
2018-09-04T20:04:06.378Z,17.30
2018-09-04T20:06:35.597Z,17.30
2018-09-04T20:09:05.601Z,17.30
2018-09-04T20:11:35.180Z,17.20
2018-09-04T20:14:04.329Z,17.20
2018-09-04T20:16:33.617Z,17.20
2018-09-04T20:19:02.773Z,17.10
2018-09-04T20:21:34.879Z,17.10
2018-09-04T20:24:03.997Z,17.10
2018-09-04T20:26:33.125Z,17.10
2018-09-04T20:29:02.307Z,17.10
2018-09-04T20:31:31.434Z,17.00
2018-09-04T20:34:00.577Z,17.00
2018-09-04T20:36:29.753Z,17.00
2018-09-04T20:38:58.906Z,17.00
2018-09-04T20:41:28.068Z,17.00
2018-09-04T20:43:57.258Z,16.90
2018-09-04T20:46:26.389Z,16.90
2018-09-04T20:48:55.537Z,17.00
2018-09-04T20:51:24.813Z,16.90
2018-09-04T20:53:53.992Z,16.90
2018-09-04T20:56:23.134Z,16.90
2018-09-04T20:59:09.525Z,16.90
2018-09-04T21:01:55.765Z,16.90
2018-09-04T21:04:42.049Z,16.80
2018-09-04T21:07:13.776Z,16.90
2018-09-04T21:09:48.262Z,16.90
2018-09-04T21:12:17.422Z,16.90
2018-09-04T21:14:46.646Z,16.80
2018-09-04T21:17:15.808Z,16.90
2018-09-04T21:19:44.934Z,16.90
2018-09-04T21:22:14.086Z,16.90
2018-09-04T21:24:43.221Z,16.90
2018-09-04T21:27:12.369Z,16.90
2018-09-04T21:29:41.529Z,16.80
2018-09-04T21:32:10.697Z,16.80
2018-09-04T21:34:39.868Z,16.90
2018-09-04T21:37:09.024Z,16.90
2018-09-04T21:39:38.160Z,16.90
2018-09-04T21:42:07.294Z,16.80
2018-09-04T21:44:36.443Z,16.80
2018-09-04T21:47:06.132Z,16.80
2018-09-04T21:49:35.265Z,16.80
2018-09-04T21:52:04.397Z,16.80
2018-09-04T21:54:33.554Z,16.80
2018-09-04T21:57:02.689Z,16.80
2018-09-04T21:59:31.857Z,16.80
2018-09-04T22:02:01.071Z,16.80
2018-09-04T22:04:30.214Z,16.80
2018-09-04T22:06:59.381Z,16.80
2018-09-04T22:09:28.509Z,16.80
2018-09-04T22:11:57.665Z,16.80
2018-09-04T22:14:26.884Z,16.80
2018-09-04T22:16:56.063Z,16.80
2018-09-04T22:19:25.209Z,16.80
2018-09-04T22:21:54.348Z,16.80
2018-09-04T22:24:23.554Z,16.80
2018-09-04T22:26:52.709Z,16.80
2018-09-04T22:29:21.869Z,16.80
2018-09-04T22:31:51.041Z,16.70
2018-09-04T22:34:20.442Z,16.70
2018-09-04T22:36:49.861Z,16.70
2018-09-04T22:39:18.983Z,16.70
2018-09-04T22:41:48.151Z,16.70
2018-09-04T22:44:17.300Z,16.80
2018-09-04T22:46:46.483Z,16.70
2018-09-04T22:49:15.609Z,16.70
2018-09-04T22:51:44.761Z,16.70
2018-09-04T22:54:13.889Z,16.70
2018-09-04T22:56:43.048Z,16.70
2018-09-04T22:59:12.193Z,16.70
2018-09-04T23:01:41.346Z,16.70
2018-09-04T23:04:10.503Z,16.70
2018-09-04T23:06:39.644Z,16.70
2018-09-04T23:09:08.805Z,16.70
2018-09-04T23:11:37.977Z,16.70
2018-09-04T23:14:07.144Z,16.70
2018-09-04T23:16:36.293Z,16.60
2018-09-04T23:19:05.445Z,16.70
2018-09-04T23:21:34.593Z,16.70
2018-09-04T23:24:03.725Z,16.60
2018-09-04T23:26:32.877Z,16.60
2018-09-04T23:29:02.017Z,16.60
2018-09-04T23:31:31.183Z,16.60
2018-09-04T23:34:00.345Z,16.60
2018-09-04T23:36:29.457Z,16.60
2018-09-04T23:38:58.599Z,16.60
2018-09-04T23:41:27.772Z,16.60
2018-09-04T23:43:56.941Z,16.50
2018-09-04T23:46:26.072Z,16.50
2018-09-04T23:48:55.245Z,16.50
2018-09-04T23:51:24.367Z,16.50
2018-09-04T23:53:53.513Z,16.50
2018-09-04T23:56:22.670Z,16.50
2018-09-04T23:58:51.810Z,16.50
